Time;durP1;ratioP1;P1;durP2;ratioP2;P2;SDS_P1;SDS_P2;PMS_P1;PMS_P2;Temp;Humidity;BMP_temperature;BMP_pressure;BME280_temperature;BME280_humidity;BME280_pressure;Samples;Min_cycle;Max_cycle;Signal;HPM_P1;HPM_P2
2022/01/16 00:08:02;;;;;;;25.50;15.90;;;23.30;51.10;;;;;;215244;1293;22796;-55
2022/01/16 00:13:06;;;;;;;24.10;15.20;;;23.20;51.00;;;;;;215303;1293;22634;-55
2022/01/16 00:18:21;;;;;;;23.80;15.00;;;23.20;50.70;;;;;;215178;1293;22595;-56
2022/01/16 00:23:27;;;;;;;25.80;15.70;;;23.20;50.50;;;;;;215319;1293;23037;-55
2022/01/16 00:28:32;;;;;;;26.60;16.50;;;23.30;50.60;;;;;;215160;1293;22765;-55
2022/01/16 00:33:39;;;;;;;27.50;15.80;;;23.30;50.30;;;;;;215241;1293;22666;-55
2022/01/16 00:38:44;;;;;;;23.90;15.80;;;23.40;50.20;;;;;;215124;1293;25428;-54
2022/01/16 00:43:50;;;;;;;23.60;15.30;;;23.40;50.40;;;;;;215138;1293;24387;-56
2022/01/16 00:48:59;;;;;;;25.20;15.30;;;23.30;49.80;;;;;;215439;1293;25519;-55
2022/01/16 00:54:13;;;;;;;24.60;16.70;;;23.40;50.00;;;;;;215315;1293;22655;-54
2022/01/16 00:59:17;;;;;;;26.40;16.20;;;23.30;49.80;;;;;;215329;1293;25640;-55
2022/01/16 01:04:21;;;;;;;23.10;14.80;;;23.20;49.90;;;;;;215173;1293;24361;-56
2022/01/16 01:09:26;;;;;;;24.20;16.10;;;23.30;49.80;;;;;;215325;1293;22831;-55
2022/01/16 01:14:42;;;;;;;24.20;16.90;;;23.30;50.10;;;;;;215532;1293;24242;-56
2022/01/16 01:19:47;;;;;;;24.80;15.90;;;23.20;49.70;;;;;;215229;1293;23078;-56
2022/01/16 01:24:51;;;;;;;24.10;16.40;;;23.20;49.80;;;;;;215164;1293;25672;-55
2022/01/16 01:30:02;;;;;;;23.10;15.50;;;23.20;49.60;;;;;;215501;1293;25636;-52
2022/01/16 01:35:10;;;;;;;24.00;16.20;;;23.20;49.70;;;;;;215465;1293;22788;-54
2022/01/16 01:40:20;;;;;;;25.10;16.40;;;23.20;49.50;;;;;;215290;1293;26000;-57
2022/01/16 01:51:08;;;;;;;26.70;16.30;;;23.20;49.40;;;;;;215420;1293;26466;-56
2022/01/16 01:56:17;;;;;;;24.40;16.40;;;23.20;49.30;;;;;;215253;1293;22577;-56
2022/01/16 02:01:22;;;;;;;25.40;16.00;;;23.20;49.40;;;;;;215348;1293;22655;-59
2022/01/16 02:06:30;;;;;;;25.90;16.70;;;23.20;49.30;;;;;;215313;1293;25740;-54
2022/01/16 02:11:35;;;;;;;27.60;17.10;;;23.20;49.50;;;;;;215376;1293;25660;-55
2022/01/16 02:38:13;;;;;;;23.90;15.20;;;23.30;48.70;;;;;;215272;1293;22634;-56
2022/01/16 02:43:28;;;;;;;24.70;16.40;;;23.30;48.50;;;;;;215289;1293;24085;-54
2022/01/16 02:48:35;;;;;;;26.70;16.20;;;23.30;48.90;;;;;;215084;1296;25950;-56
2022/01/16 02:53:40;;;;;;;24.10;16.40;;;23.20;48.70;;;;;;215215;1296;26665;-52
2022/01/16 02:58:46;;;;;;;24.20;16.40;;;23.20;49.10;;;;;;215383;1293;22595;-55
2022/01/16 03:03:51;;;;;;;24.00;15.20;;;23.20;48.80;;;;;;215220;1293;22723;-58
2022/01/16 03:08:57;;;;;;;27.60;16.90;;;23.20;48.90;;;;;;215470;1293;22631;-56
2022/01/16 03:14:17;;;;;;;27.90;16.70;;;23.20;48.60;;;;;;215280;1293;25645;-55
2022/01/16 03:24:56;;;;;;;23.90;16.30;;;23.10;48.50;;;;;;215702;1293;25454;-56
2022/01/16 03:30:05;;;;;;;26.60;17.70;;;23.20;49.00;;;;;;215548;1293;24351;-55
2022/01/16 03:35:11;;;;;;;26.30;17.10;;;23.20;48.60;;;;;;215401;1293;22570;-55
2022/01/16 03:40:20;;;;;;;25.90;17.30;;;23.20;48.50;;;;;;215333;1293;24277;-55
2022/01/16 03:45:29;;;;;;;26.30;17.30;;;23.20;48.40;;;;;;215417;1293;26738;-58
2022/01/16 03:50:35;;;;;;;24.90;16.30;;;23.20;48.60;;;;;;215366;1293;22861;-55
2022/01/16 03:55:44;;;;;;;27.40;17.00;;;23.10;48.70;;;;;;215448;1293;22597;-56
2022/01/16 04:00:50;;;;;;;24.80;16.40;;;23.10;48.30;;;;;;215672;1293;22663;-53
2022/01/16 04:05:56;;;;;;;27.60;16.80;;;23.20;48.30;;;;;;215386;1293;24462;-56
2022/01/16 04:11:01;;;;;;;26.30;16.90;;;23.20;48.20;;;;;;215448;1293;25627;-54
2022/01/16 04:16:06;;;;;;;24.20;16.20;;;23.20;48.00;;;;;;215349;1293;22843;-55
2022/01/16 04:21:24;;;;;;;27.50;18.40;;;23.20;47.90;;;;;;215489;1293;22677;-55
2022/01/16 04:26:41;;;;;;;25.90;16.80;;;23.20;48.00;;;;;;215364;1292;24419;-52
2022/01/16 04:31:46;;;;;;;27.10;18.40;;;23.20;47.90;;;;;;215406;1293;22583;-57
2022/01/16 04:36:53;;;;;;;25.10;16.40;;;23.20;48.00;;;;;;215302;1293;22595;-56
2022/01/16 04:47:34;;;;;;;25.80;17.00;;;23.20;47.90;;;;;;215417;1296;24373;-54
2022/01/16 04:52:58;;;;;;;24.40;16.70;;;23.20;47.70;;;;;;215496;1293;22569;-58
2022/01/16 04:58:03;;;;;;;25.10;16.90;;;23.20;47.80;;;;;;215629;1293;22612;-56
2022/01/16 05:03:06;;;;;;;23.70;16.60;;;23.10;48.00;;;;;;215211;1293;22677;-55
2022/01/16 05:08:10;;;;;;;26.60;17.50;;;23.20;47.80;;;;;;215436;1293;25306;-55
2022/01/16 05:18:26;;;;;;;26.90;16.80;;;23.10;47.90;;;;;;215459;1293;25378;-56
2022/01/16 05:23:30;;;;;;;23.90;17.50;;;23.10;48.30;;;;;;215242;1293;25572;-55
2022/01/16 05:28:33;;;;;;;25.80;17.40;;;23.10;47.90;;;;;;215571;1293;24294;-57
2022/01/16 05:33:37;;;;;;;29.80;17.40;;;23.10;47.80;;;;;;215488;1293;24046;-56
2022/01/16 05:38:41;;;;;;;24.30;17.70;;;23.10;48.00;;;;;;215116;1294;23207;-54
2022/01/16 05:43:46;;;;;;;24.30;16.30;;;23.10;47.70;;;;;;215464;1293;25375;-54
2022/01/16 05:48:50;;;;;;;27.30;16.40;;;23.20;47.00;;;;;;215468;1293;22602;-52
2022/01/16 05:53:56;;;;;;;25.40;17.10;;;23.20;47.50;;;;;;215253;1292;175062;-57
2022/01/16 05:59:00;;;;;;;26.70;16.20;;;23.20;47.60;;;;;;215359;1293;22663;-54
2022/01/16 06:04:03;;;;;;;24.90;17.10;;;23.20;47.40;;;;;;215100;1293;25560;-54
2022/01/16 06:09:07;;;;;;;25.20;17.10;;;23.20;47.70;;;;;;215362;1293;25709;-55
2022/01/16 06:14:10;;;;;;;24.90;16.10;;;23.20;47.90;;;;;;215268;1293;22620;-55
2022/01/16 06:19:14;;;;;;;25.70;16.60;;;23.20;47.60;;;;;;215347;1293;22595;-56
2022/01/16 06:24:17;;;;;;;25.70;16.40;;;23.20;47.60;;;;;;215514;1293;22580;-56
2022/01/16 06:29:21;;;;;;;24.30;17.00;;;23.20;47.70;;;;;;215198;1293;24335;-58
2022/01/16 06:34:25;;;;;;;22.70;16.10;;;23.10;47.50;;;;;;215377;1293;22572;-54
2022/01/16 06:39:29;;;;;;;26.60;16.90;;;23.10;47.80;;;;;;215336;1293;22589;-56
2022/01/16 06:44:33;;;;;;;24.80;16.30;;;23.10;48.00;;;;;;215436;1293;25566;-55
2022/01/16 06:49:36;;;;;;;25.20;16.60;;;23.10;47.70;;;;;;215409;1293;25647;-55
2022/01/16 06:54:41;;;;;;;24.80;16.30;;;23.00;47.70;;;;;;215647;1293;22609;-56
2022/01/16 06:59:47;;;;;;;26.50;16.40;;;23.10;47.70;;;;;;215517;1293;22634;-53
2022/01/16 07:04:53;;;;;;;24.20;15.60;;;23.00;47.60;;;;;;215336;1293;25575;-55
2022/01/16 07:10:00;;;;;;;26.20;16.50;;;23.00;48.10;;;;;;215536;1293;25139;-56
2022/01/16 07:15:07;;;;;;;25.90;16.70;;;23.10;48.10;;;;;;215467;1293;22630;-56
2022/01/16 07:20:11;;;;;;;26.40;16.60;;;23.00;47.50;;;;;;215521;1292;22671;-55
2022/01/16 07:25:15;;;;;;;24.30;15.80;;;23.00;47.70;;;;;;215527;1293;26757;-54
2022/01/16 07:30:18;;;;;;;25.40;17.10;;;23.00;47.60;;;;;;215307;1293;22576;-56
2022/01/16 07:35:22;;;;;;;26.90;16.20;;;23.00;47.70;;;;;;215138;1293;24363;-54
2022/01/16 07:40:46;;;;;;;32.80;16.70;;;23.00;47.80;;;;;;215286;1294;22622;-57
2022/01/16 07:45:52;;;;;;;29.90;17.20;;;23.00;47.90;;;;;;215514;1293;22811;-55
2022/01/16 07:51:01;;;;;;;31.20;16.20;;;23.10;47.60;;;;;;215004;1296;23108;-58
2022/01/16 07:56:11;;;;;;;26.00;15.50;;;23.20;47.30;;;;;;215343;1294;22786;-52
2022/01/16 08:01:32;;;;;;;28.20;16.00;;;23.20;47.20;;;;;;215105;1293;24425;-56
2022/01/16 08:06:37;;;;;;;25.10;16.40;;;23.30;47.10;;;;;;215286;1296;25294;-55
2022/01/16 08:11:40;;;;;;;28.20;16.60;;;23.30;47.10;;;;;;215294;1294;24333;-55
2022/01/16 08:16:45;;;;;;;27.30;16.00;;;23.40;47.10;;;;;;215407;1294;23223;-53
2022/01/16 08:21:49;;;;;;;27.00;15.80;;;23.40;47.10;;;;;;215217;1295;23159;-56
2022/01/16 08:26:56;;;;;;;27.30;16.60;;;23.30;47.30;;;;;;215235;1293;22635;-57
2022/01/16 08:32:00;;;;;;;29.90;16.40;;;23.30;47.60;;;;;;215392;1293;22895;-53
2022/01/16 08:37:05;;;;;;;37.90;17.30;;;23.30;48.10;;;;;;215292;1293;22802;-57
2022/01/16 08:42:09;;;;;;;26.80;16.10;;;23.50;50.90;;;;;;215452;1293;22685;-59
2022/01/16 08:47:12;;;;;;;24.40;16.50;;;23.50;51.00;;;;;;215460;1293;22602;-59
2022/01/16 08:52:18;;;;;;;30.20;16.90;;;23.40;51.50;;;;;;215089;1293;24769;-55
2022/01/16 08:57:25;;;;;;;25.80;16.50;;;23.40;50.70;;;;;;215428;1293;22569;-56
2022/01/16 09:02:29;;;;;;;30.50;16.80;;;23.50;50.70;;;;;;215141;1293;25732;-57
2022/01/16 09:07:33;;;;;;;30.20;16.00;;;23.60;51.90;;;;;;214960;1297;25541;-57
2022/01/16 09:12:37;;;;;;;25.60;14.30;;;23.70;51.10;;;;;;215493;1293;25701;-57
2022/01/16 09:17:42;;;;;;;30.90;16.30;;;23.60;50.90;;;;;;215292;1293;24244;-56
2022/01/16 09:22:50;;;;;;;29.10;15.30;;;23.60;51.30;;;;;;215644;1293;25777;-52
2022/01/16 09:27:57;;;;;;;27.20;16.30;;;23.60;51.10;;;;;;215674;1294;23989;-53
2022/01/16 09:33:04;;;;;;;29.60;14.50;;;23.70;51.60;;;;;;215410;1293;23053;-55
2022/01/16 09:38:07;;;;;;;31.80;15.00;;;23.70;51.30;;;;;;215587;1293;24309;-58
2022/01/16 09:43:11;;;;;;;29.40;15.20;;;23.70;51.30;;;;;;215626;1294;23605;-57
2022/01/16 09:48:16;;;;;;;25.20;14.90;;;23.70;51.40;;;;;;215634;1294;25612;-56
2022/01/16 09:53:29;;;;;;;26.50;15.70;;;23.60;51.20;;;;;;215713;1293;22604;-58
2022/01/16 09:58:39;;;;;;;33.20;15.80;;;23.60;51.30;;;;;;215422;1293;22592;-58
2022/01/16 10:03:46;;;;;;;25.30;15.00;;;23.60;51.30;;;;;;215514;1293;22583;-60
2022/01/16 10:08:52;;;;;;;29.40;14.60;;;23.70;51.20;;;;;;215935;1293;25413;-60
2022/01/16 10:14:07;;;;;;;26.80;14.80;;;23.80;51.60;;;;;;215488;1293;22709;-57
2022/01/16 10:19:26;;;;;;;31.90;15.30;;;23.80;51.60;;;;;;215636;1292;22591;-57
2022/01/16 10:24:38;;;;;;;25.60;14.60;;;24.00;50.40;;;;;;215369;1293;25479;-53
2022/01/16 10:29:52;;;;;;;30.40;18.70;;;23.90;50.50;;;;;;215896;1293;25498;-58
2022/01/16 10:35:28;;;;;;;28.80;16.40;;;23.90;48.60;;;;;;215581;1293;22567;-58
2022/01/16 10:40:37;;;;;;;29.60;19.00;;;23.90;49.40;;;;;;215402;1293;24258;-59
2022/01/16 10:45:43;;;;;;;30.30;17.00;;;24.10;48.40;;;;;;215456;1293;22656;-57
2022/01/16 10:50:47;;;;;;;32.50;18.60;;;24.10;48.60;;;;;;215522;1293;25987;-57
2022/01/16 10:55:52;;;;;;;31.90;19.20;;;23.90;46.40;;;;;;215638;1293;24262;-60
2022/01/16 11:01:05;;;;;;;34.40;19.50;;;23.90;47.00;;;;;;215540;1293;22598;-57
2022/01/16 11:06:10;;;;;;;32.70;17.30;;;23.90;48.00;;;;;;215527;1293;22559;-59
2022/01/16 11:11:14;;;;;;;34.40;17.70;;;23.90;48.00;;;;;;215550;1293;23530;-58
2022/01/16 11:16:22;;;;;;;31.50;18.70;;;23.80;48.70;;;;;;215449;1293;22642;-57
2022/01/16 11:21:35;;;;;;;36.30;18.60;;;23.60;49.30;;;;;;215385;1296;24505;-56
2022/01/16 11:26:42;;;;;;;35.10;17.20;;;23.50;49.90;;;;;;215609;1293;25361;-57
2022/01/16 11:31:48;;;;;;;34.20;18.50;;;23.40;50.10;;;;;;216386;1292;22610;-56
2022/01/16 11:36:55;;;;;;;34.20;18.70;;;23.30;50.40;;;;;;215529;1293;25400;-56
2022/01/16 11:41:59;;;;;;;41.30;19.20;;;23.20;51.80;;;;;;215538;1293;26400;-56
2022/01/16 11:47:09;;;;;;;35.10;18.60;;;23.10;53.10;;;;;;215718;1292;22839;-58
2022/01/16 11:52:18;;;;;;;35.70;19.00;;;23.10;54.00;;;;;;215806;1293;24425;-57
2022/01/16 11:57:26;;;;;;;30.80;17.50;;;23.00;53.60;;;;;;215619;1293;22605;-59
2022/01/16 12:02:38;;;;;;;36.30;18.10;;;23.00;53.90;;;;;;215107;1293;23619;-58
2022/01/16 12:07:48;;;;;;;29.00;16.80;;;22.90;55.00;;;;;;215400;1293;24793;-58
2022/01/16 12:12:55;;;;;;;35.80;17.00;;;22.90;54.10;;;;;;215075;1293;25517;-57
2022/01/16 12:18:01;;;;;;;32.00;19.40;;;22.80;54.70;;;;;;215080;1293;25553;-58
2022/01/16 12:23:09;;;;;;;33.50;20.30;;;22.70;53.00;;;;;;215210;1293;25353;-56
2022/01/16 12:28:31;;;;;;;30.70;18.20;;;22.70;52.50;;;;;;216575;1293;23880;-55
2022/01/16 12:33:50;;;;;;;32.30;17.90;;;22.60;52.60;;;;;;215504;1293;24350;-54
2022/01/16 12:39:07;;;;;;;30.40;17.40;;;22.60;52.70;;;;;;215664;1293;24346;-57
2022/01/16 12:44:18;;;;;;;31.40;18.10;;;22.60;52.60;;;;;;215596;1293;22886;-56
2022/01/16 12:49:31;;;;;;;29.40;18.40;;;22.60;52.60;;;;;;215806;1293;26155;-55
2022/01/16 12:54:50;;;;;;;32.10;18.70;;;22.60;52.50;;;;;;215481;1293;25529;-58
2022/01/16 13:00:13;;;;;;;30.80;18.30;;;22.50;52.40;;;;;;215421;1293;24846;-57
2022/01/16 13:05:21;;;;;;;34.40;18.20;;;22.50;52.40;;;;;;215779;1293;24443;-57
2022/01/16 13:10:43;;;;;;;35.20;18.60;;;22.50;52.30;;;;;;215619;1293;23002;-58
2022/01/16 13:15:55;;;;;;;36.20;18.70;;;22.40;52.60;;;;;;215254;1293;25372;-58
2022/01/16 13:21:06;;;;;;;29.60;18.30;;;22.50;52.20;;;;;;215515;1293;24888;-54
2022/01/16 13:26:25;;;;;;;32.00;18.30;;;22.40;52.20;;;;;;215795;1292;26549;-60
2022/01/16 13:31:30;;;;;;;36.40;19.80;;;22.40;52.00;;;;;;215800;1293;25366;-55
2022/01/16 13:36:35;;;;;;;37.50;19.30;;;22.40;52.10;;;;;;215586;1293;22639;-58
2022/01/16 13:41:44;;;;;;;30.00;18.90;;;22.30;52.50;;;;;;215615;1293;22664;-56
2022/01/16 13:46:57;;;;;;;32.80;18.70;;;22.30;52.40;;;;;;215698;1293;22635;-54
2022/01/16 13:52:02;;;;;;;;;;;22.20;52.10;;;;;;215636;1293;22613;-55
2022/01/16 13:57:06;;;;;;;29.80;19.30;;;22.10;52.50;;;;;;215844;1293;22627;-56
2022/01/16 14:02:20;;;;;;;36.40;19.50;;;22.10;52.20;;;;;;215670;1293;22566;-54
2022/01/16 14:07:24;;;;;;;33.00;18.70;;;22.10;52.20;;;;;;215727;1293;22621;-52
2022/01/16 14:12:36;;;;;;;30.10;17.90;;;22.00;52.10;;;;;;215585;1293;23122;-57
2022/01/16 14:18:06;;;;;;;32.50;18.70;;;22.00;52.30;;;;;;215570;1293;22640;-55
2022/01/16 14:23:20;;;;;;;31.40;19.10;;;21.90;52.20;;;;;;215386;1296;24277;-56
2022/01/16 14:28:37;;;;;;;31.70;19.30;;;21.90;52.20;;;;;;215350;1296;25643;-58
2022/01/16 14:33:41;;;;;;;27.20;18.20;;;21.90;52.10;;;;;;215351;1296;25036;-57
2022/01/16 14:38:55;;;;;;;;;;;21.90;52.10;;;;;;215482;1296;22593;-57
2022/01/16 14:44:06;;;;;;;31.10;18.20;;;21.80;52.20;;;;;;215365;1296;22635;-55
2022/01/16 14:49:11;;;;;;;27.20;17.80;;;21.90;52.20;;;;;;215393;1293;24325;-59
2022/01/16 14:54:16;;;;;;;29.90;18.20;;;21.80;52.50;;;;;;215668;1293;25497;-59
2022/01/16 14:59:20;;;;;;;30.30;18.40;;;21.70;52.10;;;;;;215651;1293;22588;-55
2022/01/16 15:04:26;;;;;;;30.30;18.20;;;21.70;52.10;;;;;;215665;1293;22668;-59
2022/01/16 15:09:29;;;;;;;28.90;17.40;;;21.60;52.00;;;;;;215756;1293;22577;-56
2022/01/16 15:14:41;;;;;;;27.40;17.10;;;21.50;52.00;;;;;;215717;1293;25567;-57
2022/01/16 15:19:56;;;;;;;28.50;17.70;;;21.60;52.30;;;;;;215649;1293;22641;-57
2022/01/16 15:25:03;;;;;;;25.90;17.40;;;21.50;51.90;;;;;;215480;1293;24391;-58
2022/01/16 15:30:11;;;;;;;28.10;17.80;;;21.50;51.90;;;;;;215664;1293;22595;-56
2022/01/16 15:35:17;;;;;;;25.90;16.00;;;21.40;52.00;;;;;;215664;1293;24335;-56
2022/01/16 15:40:24;;;;;;;27.10;16.80;;;21.40;51.70;;;;;;215310;1293;22604;-55
2022/01/16 15:45:28;;;;;;;27.40;15.80;;;21.40;51.80;;;;;;215628;1292;22569;-58
2022/01/16 15:50:33;;;;;;;25.70;16.30;;;21.30;51.70;;;;;;215890;1293;23124;-58
2022/01/16 15:55:39;;;;;;;27.10;16.80;;;21.30;51.80;;;;;;215669;1293;22669;-57
2022/01/16 16:00:47;;;;;;;23.60;15.60;;;21.30;51.90;;;;;;215758;1293;24360;-58
2022/01/16 16:05:55;;;;;;;22.90;14.90;;;21.20;51.70;;;;;;215663;1293;22582;-56
2022/01/16 16:11:00;;;;;;;21.20;14.10;;;21.10;51.80;;;;;;215626;1293;24364;-54
2022/01/16 16:16:10;;;;;;;25.70;16.00;;;21.10;51.70;;;;;;215585;1293;22912;-52
2022/01/16 16:21:37;;;;;;;24.60;16.20;;;21.10;51.80;;;;;;215389;1293;22771;-57
2022/01/16 16:26:56;;;;;;;23.70;14.50;;;21.00;51.90;;;;;;215062;1293;22757;-58
2022/01/16 16:32:36;;;;;;;25.40;14.70;;;21.00;51.90;;;;;;215362;1293;22598;-59
2022/01/16 16:37:45;;;;;;;24.30;14.60;;;21.00;51.50;;;;;;215713;1293;22612;-56
2022/01/16 16:43:15;;;;;;;24.30;14.50;;;21.00;51.60;;;;;;215755;1293;25420;-57
2022/01/16 16:48:41;;;;;;;24.20;13.90;;;20.90;52.00;;;;;;215744;1292;22621;-56
2022/01/16 16:54:25;;;;;;;23.00;15.10;;;20.90;51.50;;;;;;215472;1293;22673;-57
2022/01/16 16:59:55;;;;;;;20.80;13.80;;;20.80;51.60;;;;;;215964;1293;22595;-54
2022/01/16 17:05:05;;;;;;;22.60;14.40;;;20.80;51.50;;;;;;215557;1293;22615;-58
2022/01/16 17:10:19;;;;;;;20.10;13.50;;;20.80;51.60;;;;;;215636;1293;22581;-54
2022/01/16 17:15:38;;;;;;;21.60;13.60;;;20.70;51.50;;;;;;215434;1293;25622;-58
2022/01/16 17:20:54;;;;;;;20.90;13.20;;;20.70;51.60;;;;;;215795;1293;22696;-56
2022/01/16 17:26:51;;;;;;;19.60;13.00;;;20.60;51.90;;;;;;215566;1293;22801;-55
2022/01/16 17:31:39;;;;;;;18.10;12.90;;;20.60;51.70;;;;;;215462;1293;25470;-57
2022/01/16 17:36:56;;;;;;;22.00;13.10;;;20.60;51.80;;;;;;215575;1293;24259;-57
2022/01/16 17:42:20;;;;;;;17.90;12.00;;;20.50;51.50;;;;;;215764;1293;24349;-58
2022/01/16 17:47:25;;;;;;;20.40;13.30;;;20.50;51.50;;;;;;215864;1293;24267;-56
2022/01/16 17:52:35;;;;;;;17.70;12.30;;;20.50;51.60;;;;;;215808;1293;22722;-58
2022/01/16 17:57:58;;;;;;;19.30;12.70;;;20.50;51.40;;;;;;215228;1293;841538;-52
2022/01/16 18:03:12;;;;;;;20.60;12.80;;;20.50;51.50;;;;;;215990;1293;24113;-57
2022/01/16 18:08:50;;;;;;;17.60;12.30;;;20.40;51.80;;;;;;215842;1293;22647;-55
2022/01/16 18:14:19;;;;;;;19.00;11.90;;;20.30;51.60;;;;;;215628;1293;24237;-57
2022/01/16 18:19:44;;;;;;;19.90;12.70;;;20.30;51.50;;;;;;215622;1293;22583;-56
2022/01/16 18:25:28;;;;;;;18.40;11.50;;;20.30;51.40;;;;;;215699;1293;25511;-58
2022/01/16 18:30:55;;;;;;;17.60;12.10;;;20.30;51.50;;;;;;215496;1293;25512;-55
2022/01/16 18:36:07;;;;;;;18.20;11.40;;;20.30;51.40;;;;;;215800;1293;24311;-56
2022/01/16 18:42:16;;;;;;;15.20;10.80;;;20.20;51.50;;;;;;215598;1293;24791;-56
2022/01/16 18:47:36;;;;;;;17.90;11.90;;;20.20;51.50;;;;;;215517;1292;24278;-57
2022/01/16 18:53:09;;;;;;;17.10;11.40;;;20.10;51.40;;;;;;215992;1291;23963;-56
2022/01/16 19:04:25;;;;;;;13.90;10.30;;;20.10;51.50;;;;;;215511;1293;22787;-56
2022/01/16 19:09:57;;;;;;;16.40;10.50;;;20.10;51.30;;;;;;215583;1293;24319;-57
2022/01/16 19:15:10;;;;;;;16.00;10.70;;;20.10;51.40;;;;;;215707;1292;22732;-57
2022/01/16 19:20:24;;;;;;;14.90;10.60;;;20.00;51.50;;;;;;215749;1292;24259;-57
2022/01/16 19:25:36;;;;;;;15.10;10.40;;;20.00;51.30;;;;;;215640;1293;24449;-56
2022/01/16 19:31:09;;;;;;;15.70;9.90;;;20.00;51.30;;;;;;215485;1293;24374;-55
2022/01/16 19:36:35;;;;;;;14.70;10.40;;;19.90;51.30;;;;;;215533;1293;22570;-54
2022/01/16 19:42:02;;;;;;;14.60;9.80;;;19.90;51.30;;;;;;216100;1291;24800;-58
2022/01/16 19:47:19;;;;;;;14.10;10.10;;;19.90;51.30;;;;;;215691;1293;25407;-56
2022/01/16 19:52:47;;;;;;;13.70;9.10;;;19.90;51.70;;;;;;215833;1293;24307;-56
2022/01/16 19:58:17;;;;;;;12.70;8.80;;;19.90;51.20;;;;;;216129;1292;24272;-56
2022/01/16 20:03:36;;;;;;;13.40;9.90;;;19.80;51.20;;;;;;215939;1293;24297;-58
2022/01/16 20:08:54;;;;;;;13.90;9.00;;;19.80;51.20;;;;;;215656;1293;22838;-57
2022/01/16 20:14:15;;;;;;;13.00;9.10;;;19.80;51.10;;;;;;215419;1293;22694;-57
2022/01/16 20:19:51;;;;;;;12.50;9.00;;;19.80;51.00;;;;;;215413;1293;24970;-56
2022/01/16 20:25:28;;;;;;;11.80;8.00;;;19.80;51.10;;;;;;215262;1293;24240;-58
2022/01/16 20:30:55;;;;;;;12.70;8.50;;;19.70;51.10;;;;;;215514;1293;24354;-56
2022/01/16 20:36:17;;;;;;;13.40;9.10;;;19.70;51.10;;;;;;215488;1293;23078;-54
2022/01/16 20:41:52;;;;;;;13.70;9.40;;;19.70;51.10;;;;;;215712;1293;26109;-57
2022/01/16 20:47:26;;;;;;;13.10;8.80;;;19.70;51.20;;;;;;215421;1293;26530;-57
2022/01/16 20:53:08;;;;;;;11.40;8.30;;;19.60;51.50;;;;;;215607;1293;24272;-62
2022/01/16 20:58:23;;;;;;;12.20;8.70;;;19.60;51.20;;;;;;215725;1293;24481;-57
2022/01/16 21:03:42;;;;;;;13.40;8.70;;;19.60;51.10;;;;;;215682;1293;24265;-57
2022/01/16 21:09:26;;;;;;;11.20;7.40;;;19.50;51.30;;;;;;215516;1293;24248;-58
2022/01/16 21:14:43;;;;;;;11.70;7.60;;;19.50;51.10;;;;;;215501;1293;22585;-56
2022/01/16 21:20:18;;;;;;;10.80;7.40;;;19.50;51.00;;;;;;215687;1293;22749;-58
2022/01/16 21:25:45;;;;;;;11.00;7.60;;;19.50;50.90;;;;;;215638;1293;25666;-56
2022/01/16 21:31:20;;;;;;;10.40;7.60;;;19.50;51.00;;;;;;215676;1292;24324;-57
2022/01/16 21:36:51;;;;;;;10.00;7.30;;;19.40;50.90;;;;;;215696;1293;25317;-56
2022/01/16 21:42:16;;;;;;;9.60;6.80;;;19.40;50.90;;;;;;216022;1293;24234;-58
2022/01/16 21:47:48;;;;;;;10.40;7.20;;;19.40;50.90;;;;;;215628;1293;24481;-59
2022/01/16 21:53:13;;;;;;;9.70;7.00;;;19.30;51.00;;;;;;215782;1293;22603;-54
2022/01/16 21:58:56;;;;;;;9.70;7.00;;;19.40;50.90;;;;;;216159;1293;25289;-56
2022/01/16 22:04:31;;;;;;;11.80;7.40;;;19.30;50.90;;;;;;215779;1293;24334;-55
2022/01/16 22:10:03;;;;;;;11.30;7.40;;;19.30;50.90;;;;;;215624;1293;24303;-59
2022/01/16 22:15:20;;;;;;;8.90;6.60;;;19.30;50.90;;;;;;215522;1293;24737;-56
2022/01/16 22:20:50;;;;;;;10.90;7.00;;;19.30;51.00;;;;;;215542;1293;22577;-57
2022/01/16 22:26:04;;;;;;;10.10;7.10;;;19.20;50.90;;;;;;215667;1293;23110;-55
2022/01/16 22:31:23;;;;;;;11.00;7.00;;;19.20;50.80;;;;;;215693;1293;25363;-57
2022/01/16 22:36:40;;;;;;;10.50;6.40;;;19.10;51.30;;;;;;215651;1293;25413;-57
2022/01/16 22:42:17;;;;;;;9.70;6.70;;;19.10;51.30;;;;;;215566;1293;25415;-58
2022/01/16 22:47:24;;;;;;;8.90;5.80;;;19.10;51.30;;;;;;215793;1293;24369;-59
2022/01/16 22:52:36;;;;;;;9.30;6.10;;;19.10;50.90;;;;;;215818;1293;26749;-57
2022/01/16 22:57:49;;;;;;;10.30;6.70;;;19.10;51.10;;;;;;215841;1293;25314;-56
2022/01/16 23:03:10;;;;;;;10.70;7.00;;;19.10;50.80;;;;;;215816;1293;22738;-56
2022/01/16 23:08:25;;;;;;;9.70;5.90;;;19.00;50.80;;;;;;215661;1293;22620;-58
2022/01/16 23:13:31;;;;;;;10.30;6.20;;;19.00;50.90;;;;;;215746;1293;23032;-56
2022/01/16 23:18:36;;;;;;;9.80;6.20;;;19.00;50.80;;;;;;215599;1293;25384;-57
2022/01/16 23:23:42;;;;;;;10.60;5.90;;;18.90;51.30;;;;;;215380;1293;22615;-56
2022/01/16 23:29:06;;;;;;;9.00;6.20;;;18.90;50.90;;;;;;215632;1293;24347;-56
2022/01/16 23:34:09;;;;;;;9.10;5.70;;;18.90;50.90;;;;;;215788;1293;22569;-56
2022/01/16 23:39:14;;;;;;;7.70;5.40;;;18.90;50.90;;;;;;215638;1293;25430;-55
2022/01/16 23:44:17;;;;;;;8.60;6.20;;;18.90;50.80;;;;;;215755;1293;22594;-55
2022/01/16 23:49:22;;;;;;;8.90;5.70;;;18.90;50.80;;;;;;215582;1293;22862;-56
2022/01/16 23:54:26;;;;;;;8.80;6.00;;;18.90;50.80;;;;;;215667;1293;22593;-59
2022/01/16 23:59:30;;;;;;;9.90;6.50;;;18.90;50.80;;;;;;215800;1293;24357;-56
